This is the latest recevied weather packets stored in our database for station/object HS5FXK-3. If no packets are shown the sender has not sent any weather packets the latest 10 day(s).
| Time | Temp. | Humidity | Pressure | Rain* | Wind** | Luminosity | Snow |
|---|---|---|---|---|---|---|---|
| 1778137143 | 41.67° C | 35% | 975 hPa | - | - | 0 W/m² | - |
| 1778136229 | 41.11° C | 35% | 975 hPa | - | - | 0 W/m² | - |
| 1778135317 | 41.67° C | 36% | 976 hPa | - | - | 0 W/m² | - |
| 1778134405 | 41.67° C | 36% | 976 hPa | - | - | 0 W/m² | - |
| 1778133504 | 41.11° C | 38% | 976 hPa | - | - | 0 W/m² | - |
| 1778132599 | 41.11° C | 41% | 977 hPa | - | - | 0 W/m² | - |
| 1778131668 | 41.11° C | 40% | 977 hPa | - | - | 0 W/m² | - |
| 1778131091 | 41.11° C | 41% | 977 hPa | - | - | 0 W/m² | - |
| 1778129845 | 40° C | 43% | 978 hPa | - | - | 0 W/m² | - |
| 1778129184 | 40.56° C | 43% | 978 hPa | - | - | 0 W/m² | - |
| 1778128470 | 38.33° C | 45% | 978 hPa | - | - | 0 W/m² | - |
| 1778127518 | 37.22° C | 49% | 978 hPa | - | - | 0 W/m² | - |
| 1778126606 | 37.78° C | 49% | 978 hPa | - | - | 0 W/m² | - |
| 1778125824 | 37.78° C | 51% | 978 hPa | - | - | 0 W/m² | - |
| 1778124782 | 36.67° C | 53% | 979 hPa | - | - | 0 W/m² | - |
| 1778124543 | 36.67° C | 53% | 979 hPa | - | - | 0 W/m² | - |
| 1778123631 | 35° C | 58% | 979 hPa | - | - | 0 W/m² | - |
| 1778122719 | 35° C | 59% | 979 hPa | - | - | 0 W/m² | - |
| 1778121806 | 33.89° C | 62% | 979 hPa | - | - | 0 W/m² | - |
| 1778121268 | 33.89° C | 63% | 979 hPa | - | - | 0 W/m² | - |
| 1778120356 | 33.33° C | 66% | 979 hPa | - | - | 0 W/m² | - |
| 1778119443 | 32.78° C | 70% | 979 hPa | - | - | 0 W/m² | - |
| 1778118531 | 31.67° C | 73% | 979 hPa | - | - | 0 W/m² | - |
| 1778117619 | 31.11° C | 79% | 979 hPa | - | - | 0 W/m² | - |
| 1778116706 | 30° C | 82% | 979 hPa | - | - | 0 W/m² | - |
* Rain since midnight (hover to see other rain measurements)
** Current wind speed in m/s (hover to see current wind gust speed)